Time;durP1;ratioP1;P1;durP2;ratioP2;P2;SDS_P1;SDS_P2;PMS_P1;PMS_P2;Temp;Humidity;BMP_temperature;BMP_pressure;BME280_temperature;BME280_humidity;BME280_pressure;Samples;Min_cycle;Max_cycle;Signal;HPM_P1;HPM_P2
2024/01/11 00:00:12;;;;;;;2.30;2.20;;;;;;;-0.89;100.00;100615.06;5103101;28;20199;-67
2024/01/11 00:02:40;;;;;;;0.90;0.90;;;;;;;-0.92;100.00;100620.00;5101940;28;20252;-67
2024/01/11 00:05:08;;;;;;;0.90;0.90;;;;;;;-0.92;100.00;100612.44;5105795;28;20566;-67
2024/01/11 00:07:35;;;;;;;1.80;1.80;;;;;;;-0.92;100.00;100620.00;5097761;28;20200;-68
2024/01/11 00:10:02;;;;;;;1.07;1.07;;;;;;;-0.90;100.00;100613.34;5097720;28;20194;-67
2024/01/11 00:12:29;;;;;;;0.77;0.77;;;;;;;-0.90;100.00;100618.38;5093345;28;20205;-67
2024/01/11 00:14:56;;;;;;;1.17;1.17;;;;;;;-0.95;100.00;100609.81;5093349;28;20670;-68
2024/01/11 00:17:22;;;;;;;2.20;1.87;;;;;;;-0.97;100.00;100607.25;5105931;28;20196;-67
2024/01/11 00:19:51;;;;;;;2.40;1.43;;;;;;;-1.06;100.00;100592.69;5090782;28;20200;-68
2024/01/11 00:22:18;;;;;;;1.00;1.00;;;;;;;-0.99;100.00;100602.94;5094581;28;20286;-68
2024/01/11 00:24:44;;;;;;;1.60;1.60;;;;;;;-1.00;100.00;100601.25;5103624;28;20271;-68
2024/01/11 00:27:11;;;;;;;1.37;1.27;;;;;;;-1.02;100.00;100603.72;5099816;28;20200;-68
2024/01/11 00:29:38;;;;;;;0.80;0.80;;;;;;;-1.07;100.00;100590.94;5097597;28;20251;-67
2024/01/11 00:32:05;;;;;;;0.70;0.70;;;;;;;-1.10;100.00;100588.34;5092435;28;20210;-68
2024/01/11 00:34:31;;;;;;;1.10;1.10;;;;;;;-1.09;100.00;100582.50;5098708;28;20252;-68
2024/01/11 00:36:59;;;;;;;0.93;0.93;;;;;;;-1.09;100.00;100576.59;5098810;28;20270;-68
2024/01/11 00:39:26;;;;;;;1.33;1.33;;;;;;;-1.09;100.00;100577.47;5100365;28;20279;-67
2024/01/11 00:41:53;;;;;;;1.30;1.30;;;;;;;-1.12;100.00;100574.00;5095753;28;20199;-68
2024/01/11 00:44:19;;;;;;;0.80;0.80;;;;;;;-1.13;100.00;100575.66;5097231;28;20743;-68
2024/01/11 00:46:46;;;;;;;1.50;1.50;;;;;;;-1.14;100.00;100573.94;5103130;28;20271;-67
2024/01/11 00:49:13;;;;;;;0.80;0.80;;;;;;;-1.14;100.00;100563.88;5094443;28;20268;-68
2024/01/11 00:51:39;;;;;;;0.87;0.87;;;;;;;-1.14;100.00;100551.31;5099133;28;20191;-67
2024/01/11 00:54:07;;;;;;;0.80;0.80;;;;;;;-1.16;100.00;100559.59;5103214;27;20203;-68
2024/01/11 00:56:34;;;;;;;1.00;1.00;;;;;;;-1.18;100.00;100549.47;5095795;28;20195;-68
2024/01/11 00:59:01;;;;;;;0.70;0.70;;;;;;;-1.17;100.00;100546.16;5099848;28;20199;-68
2024/01/11 01:01:28;;;;;;;2.90;2.70;;;;;;;-1.15;100.00;100546.22;5109892;28;20255;-68
2024/01/11 01:03:54;;;;;;;1.17;1.17;;;;;;;-1.15;100.00;100547.06;5112462;28;20190;-68
2024/01/11 01:06:21;;;;;;;0.87;0.87;;;;;;;-1.16;100.00;100540.31;5101914;28;20260;-68
2024/01/11 01:08:48;;;;;;;0.90;0.90;;;;;;;-1.15;100.00;100544.56;5093240;28;20280;-68
2024/01/11 01:11:16;;;;;;;1.13;1.13;;;;;;;-1.24;100.00;100530.81;5096634;28;20252;-68
2024/01/11 01:13:43;;;;;;;0.80;0.80;;;;;;;-1.21;100.00;100531.75;5099609;28;20579;-68
2024/01/11 01:16:09;;;;;;;1.10;1.10;;;;;;;-1.23;100.00;100528.31;5101032;28;20194;-68
2024/01/11 01:18:35;;;;;;;0.70;0.70;;;;;;;-1.15;100.00;100533.63;5094067;28;20195;-68
2024/01/11 01:21:02;;;;;;;0.90;0.90;;;;;;;-1.18;100.00;100531.00;5106121;28;20263;-68
2024/01/11 01:23:28;;;;;;;1.00;1.00;;;;;;;-1.29;100.00;100507.16;5099395;28;20632;-68
2024/01/11 01:25:55;;;;;;;1.70;1.67;;;;;;;-1.21;100.00;100534.28;5105787;28;20223;-68
2024/01/11 01:28:23;;;;;;;1.17;1.17;;;;;;;-1.21;100.00;100530.91;5093190;28;20199;-68
2024/01/11 01:30:50;;;;;;;1.63;1.57;;;;;;;-1.23;100.00;100523.28;5101425;28;20730;-67
2024/01/11 01:33:17;;;;;;;0.70;0.70;;;;;;;-1.24;100.00;100521.59;5102281;28;20244;-68
2024/01/11 01:35:44;;;;;;;2.13;2.13;;;;;;;-1.28;100.00;100522.28;5106218;28;20201;-68
2024/01/11 01:38:10;;;;;;;1.97;1.80;;;;;;;-1.31;100.00;100514.63;5103615;28;20199;-68
2024/01/11 01:40:38;;;;;;;1.40;1.40;;;;;;;-1.32;100.00;100517.94;5092322;28;20371;-68
2024/01/11 01:43:08;;;;;;;2.07;2.07;;;;;;;-1.33;100.00;100511.22;5111555;28;20248;-68
2024/01/11 01:45:36;;;;;;;1.13;1.13;;;;;;;-1.35;100.00;100512.81;5102106;28;20294;-68
2024/01/11 01:48:04;;;;;;;0.87;0.87;;;;;;;-1.52;100.00;100486.25;5097946;28;20199;-68
2024/01/11 01:50:31;;;;;;;1.03;1.03;;;;;;;-1.41;100.00;100509.22;5113057;28;20282;-68
2024/01/11 01:52:59;;;;;;;0.80;0.80;;;;;;;-1.43;100.00;100509.19;5107415;28;20256;-68
2024/01/11 01:55:27;;;;;;;1.20;1.20;;;;;;;-1.59;100.00;100486.81;5111849;28;20662;-68
2024/01/11 01:57:55;;;;;;;1.23;1.23;;;;;;;-1.46;100.00;100499.03;5109111;28;20256;-69
2024/01/11 02:00:21;;;;;;;1.03;1.03;;;;;;;-1.45;100.00;100503.22;5092507;28;20256;-68
2024/01/11 02:02:52;;;;;;;0.90;0.90;;;;;;;-1.48;100.00;100498.09;5094504;28;20199;-68
2024/01/11 02:05:19;;;;;;;1.33;1.33;;;;;;;-1.54;100.00;100495.38;5109919;28;20219;-67
2024/01/11 02:07:46;;;;;;;1.30;1.30;;;;;;;-1.55;100.00;100491.13;5103830;27;20196;-67
2024/01/11 02:10:13;;;;;;;0.70;0.70;;;;;;;-1.57;100.00;100485.19;5092162;28;20204;-68
2024/01/11 02:12:40;;;;;;;0.73;0.73;;;;;;;-1.59;100.00;100484.31;5091968;28;20199;-67
2024/01/11 02:15:07;;;;;;;0.70;0.70;;;;;;;-1.60;100.00;100475.91;5101353;28;20207;-67
2024/01/11 02:17:33;;;;;;;0.90;0.90;;;;;;;-1.60;100.00;100480.06;5091849;28;20204;-67
2024/01/11 02:20:03;;;;;;;1.23;1.23;;;;;;;-1.63;100.00;100472.41;5092236;28;20272;-67
2024/01/11 02:22:32;;;;;;;0.80;0.80;;;;;;;-1.67;100.00;100468.06;5092006;28;20268;-67
2024/01/11 02:25:00;;;;;;;0.93;0.93;;;;;;;-1.66;100.00;100472.31;5092107;28;20649;-67
2024/01/11 02:27:27;;;;;;;0.70;0.70;;;;;;;-1.69;100.00;100472.19;5095751;28;20248;-67
2024/01/11 02:29:54;;;;;;;0.90;0.90;;;;;;;-1.77;100.00;100466.03;5092937;28;20199;-67
2024/01/11 02:32:21;;;;;;;1.37;1.37;;;;;;;-1.93;100.00;100456.22;5103604;28;20196;-67
2024/01/11 02:34:48;;;;;;;0.80;0.80;;;;;;;-1.99;100.00;100454.34;5092008;28;20249;-67
2024/01/11 02:37:16;;;;;;;1.10;1.10;;;;;;;-1.93;100.00;100461.25;5091901;28;20195;-67
2024/01/11 02:39:43;;;;;;;2.93;1.40;;;;;;;-1.93;100.00;100463.75;5091473;28;20222;-67
2024/01/11 02:42:11;;;;;;;0.77;0.77;;;;;;;-1.94;100.00;100473.00;5092935;28;20199;-67
2024/01/11 02:44:38;;;;;;;0.70;0.70;;;;;;;-1.96;100.00;100463.66;5105484;27;20194;-67
2024/01/11 02:47:04;;;;;;;0.70;0.70;;;;;;;-2.01;100.00;100460.13;5111779;28;20264;-67
2024/01/11 02:49:31;;;;;;;0.80;0.80;;;;;;;-2.02;100.00;100470.97;5092946;28;20252;-67
2024/01/11 02:51:58;;;;;;;0.87;0.87;;;;;;;-2.06;100.00;100469.13;5091477;28;20195;-67
2024/01/11 02:54:24;;;;;;;1.27;1.27;;;;;;;-2.07;100.00;100467.44;5091497;28;20250;-67
2024/01/11 02:56:51;;;;;;;1.90;1.80;;;;;;;-2.03;100.00;100466.72;5091269;28;20249;-67
2024/01/11 02:59:19;;;;;;;0.70;0.70;;;;;;;-2.09;100.00;100453.94;5091532;28;20195;-67
2024/01/11 03:01:46;;;;;;;1.10;1.10;;;;;;;-2.06;100.00;100462.47;5091390;28;20195;-68
2024/01/11 03:04:14;;;;;;;0.70;0.70;;;;;;;-2.02;100.00;100465.94;5103949;28;20248;-67
2024/01/11 03:06:40;;;;;;;0.90;0.90;;;;;;;-2.07;100.00;100454.88;5105286;28;20305;-67
2024/01/11 03:09:07;;;;;;;0.60;0.60;;;;;;;-1.99;100.00;100458.53;5102053;28;20285;-67
2024/01/11 03:11:34;;;;;;;0.87;0.87;;;;;;;-1.97;100.00;100461.97;5091339;28;20264;-67
2024/01/11 03:14:01;;;;;;;1.20;1.20;;;;;;;-1.99;100.00;100450.97;5096026;28;20556;-67
2024/01/11 03:16:29;;;;;;;0.90;0.90;;;;;;;-1.97;100.00;100446.88;5093590;28;20188;-67
2024/01/11 03:18:56;;;;;;;1.07;1.07;;;;;;;-2.17;100.00;100413.50;5090897;28;20199;-67
2024/01/11 03:21:23;;;;;;;1.03;1.03;;;;;;;-2.05;100.00;100439.06;5091222;28;20192;-68
2024/01/11 03:23:50;;;;;;;0.70;0.70;;;;;;;-1.97;100.00;100451.91;5091041;28;20199;-67
2024/01/11 03:26:17;;;;;;;0.70;0.70;;;;;;;-1.97;100.00;100449.41;5090738;28;20288;-67
2024/01/11 03:28:44;;;;;;;0.70;0.70;;;;;;;-1.99;100.00;100448.47;5091288;28;20276;-67
2024/01/11 03:31:11;;;;;;;0.87;0.87;;;;;;;-1.97;100.00;100441.88;5090655;28;20252;-67
2024/01/11 03:33:39;;;;;;;0.70;0.70;;;;;;;-1.97;100.00;100449.41;5099771;28;20207;-67
2024/01/11 03:36:09;;;;;;;1.37;1.37;;;;;;;-1.97;100.00;100446.88;5090784;28;20192;-67
2024/01/11 03:38:36;;;;;;;0.70;0.70;;;;;;;-1.97;100.00;100446.88;5091155;28;20199;-67
2024/01/11 03:41:07;;;;;;;0.90;0.90;;;;;;;-2.08;100.00;100425.53;5091065;28;20642;-67
2024/01/11 03:43:34;;;;;;;0.97;0.97;;;;;;;-2.00;100.00;100446.78;5090936;28;20199;-68
2024/01/11 03:46:01;;;;;;;1.47;1.47;;;;;;;-2.09;100.00;100432.19;5102817;28;20218;-67
2024/01/11 03:48:28;;;;;;;0.77;0.77;;;;;;;-2.05;100.00;100433.19;5091537;28;20196;-67
2024/01/11 03:50:56;;;;;;;1.00;1.00;;;;;;;-2.06;100.00;100431.44;5090809;28;20225;-67
2024/01/11 03:53:22;;;;;;;0.93;0.93;;;;;;;-2.24;100.00;100409.91;5090565;28;20192;-67
2024/01/11 03:55:49;;;;;;;0.97;0.97;;;;;;;-2.09;100.00;100427.19;5091812;28;20256;-67
2024/01/11 03:58:16;;;;;;;1.00;1.00;;;;;;;-2.12;100.00;100429.59;5090334;28;20199;-67
2024/01/11 04:00:42;;;;;;;0.80;0.80;;;;;;;-2.14;100.00;100429.53;5090829;28;20628;-67
2024/01/11 04:03:09;;;;;;;0.70;0.70;;;;;;;-2.20;100.00;100416.72;5098258;28;20228;-67
2024/01/11 04:05:36;;;;;;;0.80;0.80;;;;;;;-2.19;100.00;100423.47;5095345;28;20272;-67
2024/01/11 04:08:06;;;;;;;0.80;0.80;;;;;;;-2.29;100.00;100402.97;5090365;28;20223;-67
2024/01/11 04:10:33;;;;;;;1.27;1.27;;;;;;;-2.21;100.00;100417.56;5092546;28;20625;-67
2024/01/11 04:13:00;;;;;;;2.27;2.17;;;;;;;-2.21;100.00;100411.66;5110909;28;20202;-67
2024/01/11 04:15:27;;;;;;;1.27;1.27;;;;;;;-2.22;100.00;100405.78;5104283;28;20556;-67
2024/01/11 04:17:53;;;;;;;0.80;0.80;;;;;;;-2.23;100.00;100408.25;5107674;28;20218;-67
2024/01/11 04:20:20;;;;;;;0.73;0.73;;;;;;;-2.27;100.00;100407.28;5090284;28;20253;-67
2024/01/11 04:22:47;;;;;;;0.80;0.80;;;;;;;-2.29;100.00;100413.88;5090227;28;20647;-67
2024/01/11 04:25:15;;;;;;;1.20;1.20;;;;;;;-2.32;100.00;100407.91;5091561;28;20191;-67
2024/01/11 04:27:41;;;;;;;0.90;0.90;;;;;;;-2.54;100.00;100391.19;5093936;28;20203;-67
2024/01/11 04:30:09;;;;;;;0.70;0.70;;;;;;;-2.54;100.00;100398.72;5103117;28;20255;-68
2024/01/11 04:32:35;;;;;;;1.10;1.10;;;;;;;-2.56;100.00;100399.47;5100257;28;20191;-67
2024/01/11 04:35:02;;;;;;;1.27;1.27;;;;;;;-2.59;100.00;100401.84;5094259;28;20629;-67
2024/01/11 04:37:29;;;;;;;3.80;1.87;;;;;;;-2.61;100.00;100399.28;5094234;28;20195;-67
2024/01/11 04:39:59;;;;;;;0.80;0.80;;;;;;;-2.61;100.00;100403.44;5097715;28;20707;-67
2024/01/11 04:42:27;;;;;;;1.60;1.07;;;;;;;-2.57;100.00;100411.16;5094400;28;20203;-67
2024/01/11 04:44:54;;;;;;;1.27;1.27;;;;;;;-2.58;100.00;100399.38;5093908;28;20257;-67
2024/01/11 04:47:21;;;;;;;0.80;0.80;;;;;;;-2.66;100.00;100396.59;5093720;28;20306;-67
2024/01/11 04:49:48;;;;;;;0.87;0.87;;;;;;;-2.56;100.00;100407.84;5093520;28;20196;-67
2024/01/11 04:52:14;;;;;;;1.90;1.90;;;;;;;-2.54;100.00;100396.19;5106672;28;20671;-67
2024/01/11 04:54:41;;;;;;;1.30;1.30;;;;;;;-2.66;100.00;100385.72;5098356;28;20284;-67
2024/01/11 04:57:08;;;;;;;2.67;2.60;;;;;;;-2.57;100.00;100396.09;5098060;28;20245;-67
2024/01/11 04:59:36;;;;;;;1.20;1.20;;;;;;;-2.58;100.00;100396.88;5093298;28;20203;-67
2024/01/11 05:02:02;;;;;;;0.70;0.70;;;;;;;-2.58;100.00;100394.38;5093509;28;20272;-67
2024/01/11 05:04:29;;;;;;;0.90;0.90;;;;;;;-2.59;100.00;100402.72;5112416;28;20342;-67
2024/01/11 05:06:56;;;;;;;1.17;1.17;;;;;;;-2.59;100.00;100386.78;5099029;28;20264;-67
2024/01/11 05:09:23;;;;;;;1.37;1.37;;;;;;;-2.59;100.00;100399.34;5094022;28;20199;-67
2024/01/11 05:11:49;;;;;;;0.80;0.80;;;;;;;-2.61;100.00;100403.44;5110100;28;20203;-67
2024/01/11 05:14:16;;;;;;;0.80;0.80;;;;;;;-2.64;100.00;100396.66;5101144;28;20199;-67
2024/01/11 05:16:44;;;;;;;1.10;1.10;;;;;;;-2.72;100.00;100400.53;5093650;28;20218;-67
2024/01/11 05:19:11;;;;;;;0.70;0.70;;;;;;;-2.74;100.00;100392.94;5104469;28;20635;-66
2024/01/11 05:21:38;;;;;;;1.20;1.20;;;;;;;-2.84;100.00;100395.03;5110544;28;20195;-67
2024/01/11 05:24:05;;;;;;;0.80;0.80;;;;;;;-2.88;100.00;100389.06;5092503;28;20253;-67
2024/01/11 05:26:31;;;;;;;0.87;0.87;;;;;;;-2.91;100.00;100393.94;5097696;28;20218;-66
2024/01/11 05:28:58;;;;;;;1.07;1.07;;;;;;;-2.93;100.00;100389.66;5108344;28;20206;-67
2024/01/11 05:31:25;;;;;;;0.90;0.90;;;;;;;-2.98;100.00;100389.50;5101265;28;20199;-67
2024/01/11 05:33:53;;;;;;;1.27;1.27;;;;;;;-2.96;100.00;100382.00;5093662;28;20269;-67
2024/01/11 05:36:19;;;;;;;0.90;0.90;;;;;;;-2.91;100.00;100383.06;5092120;28;20203;-67
2024/01/11 05:38:46;;;;;;;1.13;1.13;;;;;;;-2.93;100.00;100382.13;5107565;28;20263;-67
2024/01/11 05:41:13;;;;;;;0.93;0.93;;;;;;;-2.92;100.00;100376.31;5099398;27;20195;-67
2024/01/11 05:43:41;;;;;;;1.33;1.33;;;;;;;-2.92;100.00;100376.31;5101217;28;20261;-67
2024/01/11 05:46:07;;;;;;;1.37;1.37;;;;;;;-2.91;100.00;100375.53;5093161;28;20222;-67
2024/01/11 05:48:34;;;;;;;1.10;1.10;;;;;;;-2.88;100.00;100378.16;5099971;28;20302;-67
2024/01/11 05:51:02;;;;;;;1.13;1.13;;;;;;;-2.91;100.00;100368.88;5112723;28;20560;-67
2024/01/11 05:53:29;;;;;;;1.37;1.37;;;;;;;-2.90;100.00;100374.72;5106796;28;20206;-67
2024/01/11 05:55:56;;;;;;;1.10;1.10;;;;;;;-2.93;100.00;100359.53;5092226;28;20256;-67
2024/01/11 05:58:22;;;;;;;0.77;0.77;;;;;;;-2.87;100.00;100369.81;5091418;28;20264;-67
2024/01/11 06:00:49;;;;;;;0.70;0.70;;;;;;;-2.88;100.00;100374.00;5095066;28;20688;-67
2024/01/11 06:03:16;;;;;;;3.00;2.80;;;;;;;-2.89;100.00;100371.41;5100680;28;20203;-67
2024/01/11 06:05:43;;;;;;;0.83;0.83;;;;;;;-3.01;100.00;100354.25;5105025;28;20198;-67
2024/01/11 06:08:11;;;;;;;1.80;1.80;;;;;;;-2.90;100.00;100374.72;5096251;28;20265;-67
2024/01/11 06:10:37;;;;;;;0.80;0.80;;;;;;;-2.91;100.00;100370.50;5111008;28;20259;-67
2024/01/11 06:13:04;;;;;;;1.10;1.10;;;;;;;-3.06;100.00;100337.28;5106408;28;20192;-67
2024/01/11 06:15:31;;;;;;;0.70;0.70;;;;;;;-2.94;100.00;100371.22;5095547;28;20200;-67
2024/01/11 06:17:58;;;;;;;1.10;1.10;;;;;;;-2.99;100.00;100356.81;5099640;28;20242;-67
2024/01/11 06:20:25;;;;;;;1.03;1.03;;;;;;;-2.89;100.00;100366.41;5103569;28;20220;-67
2024/01/11 06:22:51;;;;;;;0.73;0.73;;;;;;;-2.92;100.00;100368.78;5100244;28;20190;-67
2024/01/11 06:25:19;;;;;;;0.83;0.83;;;;;;;-2.90;100.00;100365.53;5093613;28;20774;-67
2024/01/11 06:27:48;;;;;;;0.60;0.60;;;;;;;-2.90;100.00;100365.53;5098760;28;20211;-67
2024/01/11 06:30:15;;;;;;;1.00;1.00;;;;;;;-2.93;100.00;100355.38;5098424;28;20194;-67
2024/01/11 06:32:41;;;;;;;0.80;0.80;;;;;;;-2.91;100.00;100363.00;5106744;28;20191;-67
2024/01/11 06:35:10;;;;;;;1.83;1.83;;;;;;;-2.89;100.00;100354.72;5096184;28;20199;-67
2024/01/11 06:37:37;;;;;;;1.37;1.37;;;;;;;-2.88;100.00;100363.09;5104431;28;20740;-67
2024/01/11 06:40:04;;;;;;;1.10;1.10;;;;;;;-2.99;100.00;100345.13;5103288;28;20586;-67
2024/01/11 06:42:32;;;;;;;2.53;1.30;;;;;;;-2.84;100.00;100364.91;5098917;28;20203;-68
2024/01/11 06:44:59;;;;;;;2.97;2.87;;;;;;;-2.84;100.00;100359.91;5097943;28;20260;-67
2024/01/11 06:47:26;;;;;;;1.60;1.60;;;;;;;-2.80;100.00;100361.72;5100946;28;20243;-67
2024/01/11 06:49:54;;;;;;;1.00;1.00;;;;;;;-2.79;100.00;100350.91;5105220;28;20196;-67
2024/01/11 06:52:20;;;;;;;1.63;1.63;;;;;;;-2.79;100.00;100351.78;5099495;28;20352;-67
2024/01/11 06:54:47;;;;;;;3.10;1.47;;;;;;;-2.88;100.00;100333.00;5094947;28;20217;-67
2024/01/11 06:57:14;;;;;;;0.70;0.70;;;;;;;-2.84;100.00;100344.84;5098164;28;20195;-67
2024/01/11 06:59:43;;;;;;;0.87;0.87;;;;;;;-2.90;100.00;100335.44;5102532;28;20208;-67
2024/01/11 07:02:10;;;;;;;0.97;0.97;;;;;;;-2.78;100.00;100347.59;5107196;28;20206;-60
2024/01/11 07:04:37;;;;;;;0.90;0.90;;;;;;;-2.73;100.00;100343.59;5095024;28;20187;-61
2024/01/11 07:07:05;;;;;;;1.50;1.17;;;;;;;-2.65;100.00;100347.28;5102439;28;20214;-60
2024/01/11 07:09:31;;;;;;;1.40;1.40;;;;;;;-2.57;100.00;100348.41;5099911;28;20199;-60
2024/01/11 07:11:58;;;;;;;1.20;1.20;;;;;;;-2.48;100.00;100353.75;5105583;28;20199;-60
2024/01/11 07:14:25;;;;;;;0.93;0.93;;;;;;;-2.41;100.00;100345.66;5100726;28;20720;-60
2024/01/11 07:16:53;;;;;;;0.83;0.83;;;;;;;-2.37;100.00;100344.97;5100413;28;20567;-60
2024/01/11 07:19:20;;;;;;;0.77;0.77;;;;;;;-2.48;100.00;100308.56;5100605;28;20528;-60
2024/01/11 07:21:47;;;;;;;0.97;0.97;;;;;;;-2.31;100.00;100327.63;5103389;28;20199;-67
2024/01/11 07:24:13;;;;;;;0.77;0.77;;;;;;;-2.15;100.00;100341.56;5098897;28;20198;-67
2024/01/11 07:26:41;;;;;;;0.80;0.80;;;;;;;-2.08;100.00;100343.50;5101493;28;20221;-67
2024/01/11 07:29:07;;;;;;;0.90;0.90;;;;;;;-2.03;100.00;100341.13;5094964;28;20240;-67
2024/01/11 07:31:34;;;;;;;0.80;0.80;;;;;;;-2.07;100.00;100334.31;5098405;28;20211;-67
2024/01/11 07:34:02;;;;;;;0.97;0.97;;;;;;;-2.12;100.00;100327.47;5100867;28;20247;-67
2024/01/11 07:36:29;;;;;;;1.13;1.13;;;;;;;-2.08;100.00;100322.53;5103087;28;20199;-67
2024/01/11 07:38:57;;;;;;;1.27;1.27;;;;;;;-2.09;100.00;100326.72;5098659;28;20663;-67
2024/01/11 07:41:24;;;;;;;0.90;0.90;;;;;;;-2.09;100.00;100320.81;5091881;28;20199;-67
2024/01/11 07:43:50;;;;;;;1.47;1.47;;;;;;;-2.06;100.00;100325.94;5094184;28;20652;-67
2024/01/11 07:46:17;;;;;;;1.27;1.27;;;;;;;-2.11;100.00;100318.28;5095316;28;20207;-67
2024/01/11 07:48:44;;;;;;;0.97;0.97;;;;;;;-2.09;100.00;100313.28;5096182;28;20243;-67
2024/01/11 07:51:12;;;;;;;1.03;1.03;;;;;;;-2.03;100.00;100316.00;5103059;28;20203;-67
2024/01/11 07:53:40;;;;;;;0.90;0.90;;;;;;;-2.03;100.00;100310.97;5094716;28;20210;-67
2024/01/11 07:56:07;;;;;;;0.73;0.73;;;;;;;-1.98;100.00;100312.00;5101359;28;20207;-68
2024/01/11 07:58:35;;;;;;;1.37;1.37;;;;;;;-1.89;100.00;100304.78;5094228;28;20210;-70
2024/01/11 08:01:03;;;;;;;0.90;0.90;;;;;;;-1.81;100.00;100313.44;5094262;28;20231;-69
2024/01/11 08:03:30;;;;;;;1.20;1.20;;;;;;;-1.74;100.00;100305.28;5091254;28;20203;-70
2024/01/11 08:05:57;;;;;;;1.97;1.97;;;;;;;-1.65;100.00;100305.63;5089379;28;20264;-70
2024/01/11 08:08:25;;;;;;;2.33;2.23;;;;;;;-1.53;100.00;100303.50;5098946;28;20231;-71
2024/01/11 08:10:51;;;;;;;0.70;0.70;;;;;;;-1.45;100.00;100299.53;5094646;28;20198;-72
2024/01/11 08:13:18;;;;;;;1.10;1.10;;;;;;;-1.35;100.00;100296.53;5091821;28;20199;-70
2024/01/11 08:15:45;;;;;;;0.80;0.80;;;;;;;-1.22;100.00;100306.16;5094548;28;20207;-69
2024/01/11 08:18:12;;;;;;;0.80;0.80;;;;;;;-1.10;100.00;100296.47;5095209;28;20249;-69
2024/01/11 08:20:40;;;;;;;1.47;1.47;;;;;;;-0.99;100.00;100291.78;5093793;28;20806;-70
2024/01/11 08:23:06;;;;;;;0.73;0.73;;;;;;;-0.90;100.00;100292.03;5097600;28;20323;-70
2024/01/11 08:25:35;;;;;;;1.10;1.10;;;;;;;-0.86;100.00;100291.31;5090114;28;20629;-68
2024/01/11 08:28:02;;;;;;;2.03;2.03;;;;;;;-0.73;100.00;100295.06;5090958;28;20675;-69
2024/01/11 08:30:29;;;;;;;1.10;1.10;;;;;;;-0.62;100.00;100283.63;5093878;28;20560;-69
2024/01/11 08:32:56;;;;;;;0.70;0.70;;;;;;;-0.55;100.00;100290.56;5092468;28;20635;-70
2024/01/11 08:35:23;;;;;;;0.90;0.90;;;;;;;-0.52;100.00;100285.63;5091320;28;20202;-70
2024/01/11 08:37:50;;;;;;;0.60;0.60;;;;;;;-0.44;100.00;100279.09;5087979;28;20630;-69
2024/01/11 08:40:17;;;;;;;1.57;1.57;;;;;;;-0.36;100.00;100280.19;5087673;28;20233;-69
2024/01/11 08:42:45;;;;;;;1.20;1.20;;;;;;;-0.25;100.00;100267.84;5089612;28;20235;-70
2024/01/11 08:45:17;;;;;;;1.27;1.27;;;;;;;-0.15;100.00;100268.16;5091091;28;20195;-69
2024/01/11 08:47:44;;;;;;;1.30;1.30;;;;;;;-0.03;100.00;100263.44;5098016;28;20219;-69
2024/01/11 08:50:13;;;;;;;0.80;0.80;;;;;;;0.06;100.00;100252.75;5098971;28;20195;-69
2024/01/11 08:52:41;;;;;;;1.30;1.30;;;;;;;0.21;100.00;100264.88;5087600;28;20199;-69
2024/01/11 08:55:08;;;;;;;1.27;1.27;;;;;;;0.30;100.00;100253.34;5086262;28;20219;-70
2024/01/11 08:57:35;;;;;;;0.80;0.80;;;;;;;0.41;100.00;100251.09;5087249;28;20196;-69
2024/01/11 09:00:06;;;;;;;0.60;0.60;;;;;;;0.51;100.00;100247.97;5098446;28;20235;-70
2024/01/11 09:02:32;;;;;;;0.60;0.60;;;;;;;0.58;100.00;100239.72;5093968;28;20594;-72
2024/01/11 09:04:59;;;;;;;0.80;0.80;;;;;;;0.68;100.00;100236.56;5090814;28;20583;-70
2024/01/11 09:07:26;;;;;;;0.80;0.80;;;;;;;0.79;100.00;100227.59;5090382;28;20215;-70
2024/01/11 09:09:54;;;;;;;0.83;0.83;;;;;;;0.87;100.00;100220.19;5089119;28;20264;-71
2024/01/11 09:12:21;;;;;;;0.70;0.70;;;;;;;0.96;100.00;100222.91;5092063;28;20231;-70
2024/01/11 09:14:48;;;;;;;0.70;0.70;;;;;;;1.01;100.00;100213.75;5096062;28;21918;-72
2024/01/11 09:17:16;;;;;;;0.73;0.73;;;;;;;1.11;100.00;100212.25;5092989;28;20740;-71
2024/01/11 09:19:43;;;;;;;0.90;0.90;;;;;;;1.27;100.00;100206.69;5087587;28;20937;-72
2024/01/11 09:22:10;;;;;;;0.97;0.97;;;;;;;1.42;100.00;100204.50;5084593;28;20191;-71
2024/01/11 09:24:37;;;;;;;0.83;0.83;;;;;;;1.42;100.00;100189.34;5084507;28;20209;-69
2024/01/11 09:27:04;;;;;;;0.70;0.70;;;;;;;1.62;100.00;100194.75;5093467;28;20226;-70
2024/01/11 09:29:31;;;;;;;1.07;1.07;;;;;;;1.62;100.00;100177.91;5093908;28;20234;-70
2024/01/11 09:31:58;;;;;;;0.90;0.90;;;;;;;1.72;100.00;100182.28;5096914;28;20653;-70
2024/01/11 09:34:26;;;;;;;1.03;1.03;;;;;;;1.75;100.00;100179.81;5091600;28;20728;-70
2024/01/11 09:36:53;;;;;;;0.87;0.87;;;;;;;1.85;100.00;100176.63;5096287;28;20207;-71
2024/01/11 09:39:19;;;;;;;0.77;0.77;;;;;;;1.72;100.00;100143.53;5101267;28;20311;-70
2024/01/11 09:41:58;;;;;;;0.80;0.80;;;;;;;2.00;100.00;100171.81;5101136;28;20656;-69
2024/01/11 09:44:26;;;;;;;1.90;1.80;;;;;;;2.08;100.00;100164.38;5100339;28;20211;-70
2024/01/11 09:46:54;;;;;;;0.70;0.70;;;;;;;2.22;100.00;100157.00;5098309;28;20264;-70
2024/01/11 09:49:23;;;;;;;0.90;0.90;;;;;;;2.28;100.00;100146.97;5099010;28;20641;-70
2024/01/11 09:51:52;;;;;;;1.03;1.03;;;;;;;2.29;100.00;100148.69;5094282;28;20265;-69
2024/01/11 09:54:20;;;;;;;0.83;0.83;;;;;;;2.33;100.00;100135.22;5100606;28;20257;-70
2024/01/11 09:56:48;;;;;;;1.87;1.70;;;;;;;2.42;100.00;100133.72;5097427;28;20202;-70
2024/01/11 09:59:17;;;;;;;0.90;0.90;;;;;;;2.59;100.00;100138.97;5100789;28;20250;-71
2024/01/11 10:01:44;;;;;;;0.73;0.73;;;;;;;2.63;100.00;100131.47;5091026;28;20195;-71
2024/01/11 10:04:13;;;;;;;0.70;0.70;;;;;;;2.69;100.00;100130.69;5092430;28;20203;-70
2024/01/11 10:06:41;;;;;;;1.40;1.30;;;;;;;2.77;99.51;100124.06;5094102;28;20203;-71
2024/01/11 10:09:09;;;;;;;1.27;1.27;;;;;;;2.82;99.72;100117.34;5094141;28;20268;-72
2024/01/11 10:11:37;;;;;;;1.00;1.00;;;;;;;2.92;100.00;100113.25;5091357;28;20203;-71
2024/01/11 10:14:05;;;;;;;0.70;0.70;;;;;;;2.98;100.00;100109.09;5093463;28;20291;-71
2024/01/11 10:16:32;;;;;;;0.90;0.90;;;;;;;2.99;100.00;100103.22;5092013;28;20207;-72
2024/01/11 10:18:59;;;;;;;0.60;0.60;;;;;;;2.97;100.00;100087.13;5095419;28;20735;-72
2024/01/11 10:21:25;;;;;;;0.90;0.90;;;;;;;3.06;98.81;100092.31;5097899;28;20263;-72
2024/01/11 10:23:52;;;;;;;0.67;0.67;;;;;;;3.27;100.00;100095.91;5093652;28;20214;-72
2024/01/11 10:26:21;;;;;;;0.60;0.60;;;;;;;3.33;100.00;100085.84;5088412;28;20265;-72
2024/01/11 10:28:48;;;;;;;0.80;0.80;;;;;;;3.42;100.00;100080.84;5088980;28;20306;-71
2024/01/11 10:31:15;;;;;;;1.23;1.23;;;;;;;3.45;98.89;100080.88;5088998;28;20203;-73
2024/01/11 10:33:42;;;;;;;0.50;0.50;;;;;;;3.46;99.87;100067.34;5096165;28;20226;-74
2024/01/11 10:36:12;;;;;;;1.10;1.10;;;;;;;3.49;100.00;100068.22;5091797;28;20199;-74
2024/01/11 10:38:40;;;;;;;0.77;0.77;;;;;;;3.58;100.00;100063.28;5087840;28;20605;-72
2024/01/11 10:41:08;;;;;;;0.70;0.70;;;;;;;3.50;98.04;100062.34;5091212;28;20720;-74
2024/01/11 10:43:38;;;;;;;0.70;0.70;;;;;;;3.56;98.09;100048.84;5090185;28;20643;-74
2024/01/11 10:46:07;;;;;;;0.70;0.70;;;;;;;3.59;98.66;100048.88;5089912;28;20256;-74
2024/01/11 10:48:39;;;;;;;1.73;1.67;;;;;;;3.59;97.47;100041.28;5090169;28;20272;-74
2024/01/11 10:51:09;;;;;;;0.90;0.90;;;;;;;3.69;99.14;100040.53;5089769;28;20199;-75
2024/01/11 10:53:45;;;;;;;0.70;0.70;;;;;;;3.67;97.99;100027.84;5088506;28;20206;-75
2024/01/11 10:56:13;;;;;;;1.20;1.20;;;;;;;3.77;97.33;100028.75;5088751;28;20202;-75
2024/01/11 10:58:43;;;;;;;0.83;0.83;;;;;;;3.84;97.47;100030.50;5089597;28;20276;-75
2024/01/11 11:01:11;;;;;;;0.70;0.70;;;;;;;3.91;97.05;100032.22;5088121;28;20216;-73
2024/01/11 11:03:39;;;;;;;0.70;0.70;;;;;;;3.96;98.25;100019.59;5089666;28;20195;-70
2024/01/11 11:06:07;;;;;;;4.60;2.60;;;;;;;4.00;96.42;100011.16;5090244;28;20297;-70
2024/01/11 11:08:34;;;;;;;1.13;1.13;;;;;;;4.00;96.18;100006.94;5096370;28;20220;-69
2024/01/11 11:11:05;;;;;;;2.23;2.10;;;;;;;4.04;97.24;100013.69;5092239;28;20498;-67
2024/01/11 11:13:33;;;;;;;1.60;1.60;;;;;;;4.14;93.44;100009.53;5096528;28;20195;-67
2024/01/11 11:16:04;;;;;;;1.43;1.07;;;;;;;4.24;93.20;100003.66;5096862;28;20209;-67
2024/01/11 11:18:31;;;;;;;0.90;0.90;;;;;;;4.28;93.57;99992.69;5100475;28;20229;-67